Time;durP1;ratioP1;P1;durP2;ratioP2;P2;SDS_P1;SDS_P2;PMS_P1;PMS_P2;Temp;Humidity;BMP_temperature;BMP_pressure;BME280_temperature;BME280_humidity;BME280_pressure;Samples;Min_cycle;Max_cycle;Signal;HPM_P1;HPM_P2
2021/05/26 00:02:06;;;;;;;23.48;11.85;;;10.10;91.30;;;;;;4958959;29;20480;-85
2021/05/26 00:04:32;;;;;;;22.30;11.68;;;10.10;90.90;;;;;;4958354;28;20031;-84
2021/05/26 00:06:57;;;;;;;19.83;11.43;;;10.10;91.00;;;;;;4959743;28;20027;-88
2021/05/26 00:09:23;;;;;;;19.27;11.45;;;10.20;91.10;;;;;;4995521;28;20626;-87
2021/05/26 00:11:48;;;;;;;18.60;9.82;;;10.20;91.10;;;;;;4963175;28;20065;-86
2021/05/26 00:14:14;;;;;;;20.48;9.93;;;10.20;90.90;;;;;;4964296;28;20023;-86
2021/05/26 00:16:40;;;;;;;14.23;8.85;;;10.20;90.70;;;;;;4963296;28;20015;-85
2021/05/26 00:19:07;;;;;;;16.05;8.98;;;10.20;90.70;;;;;;4963017;28;20030;-85
2021/05/26 00:21:33;;;;;;;20.77;9.82;;;10.20;90.40;;;;;;4959912;28;20046;-86
2021/05/26 00:23:59;;;;;;;16.17;7.97;;;10.30;90.40;;;;;;4960810;28;20034;-86
2021/05/26 00:26:24;;;;;;;15.55;7.95;;;10.30;90.40;;;;;;4960622;28;20023;-88
2021/05/26 00:28:52;;;;;;;13.95;7.82;;;10.30;90.20;;;;;;4960337;28;20113;-87
2021/05/26 00:31:21;;;;;;;14.57;7.35;;;10.30;90.20;;;;;;4959429;28;20387;-83
2021/05/26 00:33:47;;;;;;;11.83;6.27;;;10.30;90.10;;;;;;4976243;28;20022;-84
2021/05/26 00:36:13;;;;;;;12.13;5.38;;;10.30;89.20;;;;;;4958832;28;20022;-85
2021/05/26 00:38:38;;;;;;;12.93;5.50;;;10.20;88.80;;;;;;4958159;28;20077;-83
2021/05/26 00:41:04;;;;;;;14.07;5.07;;;10.30;88.70;;;;;;4963369;28;20101;-83
2021/05/26 00:43:30;;;;;;;11.32;4.30;;;10.30;87.70;;;;;;4975433;28;20031;-83
2021/05/26 00:45:55;;;;;;;7.63;2.55;;;10.30;87.50;;;;;;4958272;28;20034;-83
2021/05/26 00:48:21;;;;;;;9.75;2.55;;;10.20;87.00;;;;;;4958795;28;20027;-83
2021/05/26 00:50:47;;;;;;;5.22;2.03;;;10.20;86.40;;;;;;4958630;28;20022;-83
2021/05/26 00:53:14;;;;;;;7.88;2.60;;;10.10;86.30;;;;;;4958097;28;20030;-84
2021/05/26 00:55:41;;;;;;;6.68;2.20;;;10.00;86.40;;;;;;4976250;28;20046;-84
2021/05/26 00:58:08;;;;;;;5.68;2.00;;;10.00;86.80;;;;;;4965127;28;20023;-87
2021/05/26 01:00:36;;;;;;;4.88;1.80;;;9.90;87.10;;;;;;4963015;28;20154;-87
2021/05/26 01:03:03;;;;;;;5.20;2.22;;;9.90;87.70;;;;;;4959939;28;20117;-86
2021/05/26 01:05:30;;;;;;;5.45;2.10;;;9.90;88.40;;;;;;4960258;28;20022;-85
2021/05/26 01:07:56;;;;;;;5.65;2.30;;;9.90;88.90;;;;;;4965871;28;20046;-86
2021/05/26 01:10:27;;;;;;;7.18;2.60;;;9.80;89.30;;;;;;4981012;28;20055;-87
2021/05/26 01:12:53;;;;;;;5.18;2.42;;;9.80;89.60;;;;;;4976378;28;20039;-88
2021/05/26 01:15:19;;;;;;;4.18;2.20;;;9.70;89.70;;;;;;4962499;28;20026;-87
2021/05/26 01:17:45;;;;;;;7.20;2.53;;;9.70;90.00;;;;;;4962069;28;20035;-86
2021/05/26 01:20:19;;;;;;;6.93;2.42;;;9.80;90.00;;;;;;4960296;28;20049;-85
2021/05/26 01:22:45;;;;;;;5.63;2.10;;;9.70;90.30;;;;;;4960088;28;20042;-86
2021/05/26 01:25:11;;;;;;;7.90;3.05;;;9.70;90.20;;;;;;4960763;28;20041;-87
2021/05/26 01:27:36;;;;;;;6.22;2.40;;;9.70;90.30;;;;;;4963365;28;20023;-87
2021/05/26 01:30:06;;;;;;;3.72;2.30;;;9.70;90.30;;;;;;4963136;28;20097;-86
2021/05/26 01:32:31;;;;;;;6.87;2.33;;;9.70;90.10;;;;;;4962748;28;20041;-85
2021/05/26 01:34:57;;;;;;;5.97;2.38;;;9.70;90.20;;;;;;4960364;28;20027;-86
2021/05/26 01:37:23;;;;;;;8.88;2.80;;;9.70;90.30;;;;;;4962239;28;20019;-87
2021/05/26 01:39:49;;;;;;;8.93;3.17;;;9.70;90.50;;;;;;4975317;28;20023;-84
2021/05/26 01:42:31;;;;;;;10.55;4.25;;;9.70;90.80;;;;;;4968552;28;20027;-86
2021/05/26 01:44:57;;;;;;;6.43;3.38;;;9.70;91.10;;;;;;4971390;28;20479;-87
2021/05/26 01:47:23;;;;;;;9.40;3.78;;;9.70;91.20;;;;;;4966756;28;20453;-87
2021/05/26 01:49:49;;;;;;;7.50;3.00;;;9.60;91.70;;;;;;4965403;28;20064;-85
2021/05/26 01:52:14;;;;;;;6.63;3.33;;;9.60;91.60;;;;;;4965256;28;20031;-84
2021/05/26 01:54:40;;;;;;;9.85;3.38;;;9.60;91.80;;;;;;4966492;28;20031;-82
2021/05/26 01:57:06;;;;;;;7.65;3.17;;;9.60;91.90;;;;;;4962648;28;20187;-83
2021/05/26 01:59:31;;;;;;;5.50;2.67;;;9.50;91.90;;;;;;4960947;28;20018;-83
2021/05/26 02:01:57;;;;;;;5.80;3.28;;;9.50;92.00;;;;;;4960867;28;20030;-82
2021/05/26 02:04:22;;;;;;;6.03;2.78;;;9.50;92.10;;;;;;4962754;28;20109;-83
2021/05/26 02:07:14;;;;;;;9.05;2.60;;;9.50;92.10;;;;;;4964682;28;20026;-83
2021/05/26 02:09:40;;;;;;;6.43;3.00;;;9.50;92.00;;;;;;4960395;28;20045;-83
2021/05/26 02:12:22;;;;;;;6.25;2.60;;;9.50;92.00;;;;;;4964266;28;20118;-83
2021/05/26 02:14:50;;;;;;;6.13;2.30;;;9.50;92.10;;;;;;4962002;28;20031;-84
2021/05/26 02:17:16;;;;;;;6.43;2.47;;;9.50;92.00;;;;;;4963282;28;20463;-83
2021/05/26 02:19:42;;;;;;;5.65;2.63;;;9.50;92.00;;;;;;4961280;28;20023;-82
2021/05/26 02:22:07;;;;;;;5.68;2.83;;;9.50;92.00;;;;;;4962519;28;20423;-85
2021/05/26 02:24:33;;;;;;;5.05;2.50;;;9.50;92.00;;;;;;4962694;28;20041;-84
2021/05/26 02:26:59;;;;;;;4.57;2.95;;;9.50;92.10;;;;;;4962232;28;20030;-84
2021/05/26 02:29:24;;;;;;;6.93;3.60;;;9.50;92.10;;;;;;4965650;28;20486;-86
2021/05/26 02:31:50;;;;;;;7.20;3.03;;;9.60;92.20;;;;;;4963146;28;20027;-86
2021/05/26 02:34:16;;;;;;;9.23;3.70;;;9.60;92.20;;;;;;4963325;28;20089;-83
2021/05/26 02:36:42;;;;;;;7.90;3.85;;;9.60;92.20;;;;;;4961965;28;20019;-83
2021/05/26 02:39:08;;;;;;;5.10;2.88;;;9.60;92.20;;;;;;4962315;28;20419;-83
2021/05/26 02:41:33;;;;;;;9.00;3.70;;;9.60;92.10;;;;;;4963238;28;20025;-83
2021/05/26 02:43:59;;;;;;;10.43;5.22;;;9.70;92.20;;;;;;4965247;28;20043;-84
2021/05/26 02:46:25;;;;;;;9.52;4.75;;;9.60;92.20;;;;;;4963272;28;20038;-85
2021/05/26 02:48:51;;;;;;;12.05;4.82;;;9.70;92.30;;;;;;4962044;28;20070;-85
2021/05/26 02:51:17;;;;;;;6.72;4.85;;;9.70;92.30;;;;;;4981507;28;20026;-87
2021/05/26 02:53:42;;;;;;;9.48;5.43;;;9.80;92.30;;;;;;4965861;28;20049;-87
2021/05/26 02:56:08;;;;;;;9.38;5.47;;;9.80;92.30;;;;;;4962878;28;20031;-86
2021/05/26 02:58:33;;;;;;;9.27;5.32;;;9.80;92.20;;;;;;4962340;28;20022;-86
2021/05/26 03:00:59;;;;;;;9.02;3.83;;;9.80;92.10;;;;;;4963121;28;20379;-86
2021/05/26 03:03:24;;;;;;;7.40;4.38;;;9.80;92.10;;;;;;4981383;28;20023;-86
2021/05/26 03:05:50;;;;;;;9.13;4.93;;;9.80;92.30;;;;;;4974644;28;20057;-87
2021/05/26 03:08:15;;;;;;;13.25;6.78;;;9.90;92.00;;;;;;4962532;29;20480;-87
2021/05/26 03:10:41;;;;;;;8.07;4.43;;;9.90;92.00;;;;;;4960165;28;20047;-87
2021/05/26 03:13:07;;;;;;;10.98;5.88;;;9.90;92.10;;;;;;4960184;28;20035;-87
2021/05/26 03:15:32;;;;;;;13.00;5.70;;;9.90;91.80;;;;;;4959422;29;20031;-87
2021/05/26 03:17:58;;;;;;;12.30;6.13;;;9.90;91.80;;;;;;4961394;29;20035;-87
2021/05/26 03:20:24;;;;;;;13.30;8.23;;;9.90;91.80;;;;;;4962069;29;20121;-88
2021/05/26 03:22:49;;;;;;;8.88;5.90;;;9.90;91.60;;;;;;4960272;29;20031;-88
2021/05/26 03:25:16;;;;;;;17.42;8.13;;;9.90;91.60;;;;;;4961402;29;20022;-87
2021/05/26 03:27:42;;;;;;;15.23;8.18;;;10.00;91.80;;;;;;4960197;29;20062;-87
2021/05/26 03:30:15;;;;;;;14.57;7.18;;;10.10;91.80;;;;;;4961221;29;20376;-89
2021/05/26 03:32:41;;;;;;;12.77;6.85;;;10.00;91.70;;;;;;4960679;29;20042;-88
2021/05/26 03:35:09;;;;;;;12.32;8.05;;;10.00;91.70;;;;;;4962898;29;20027;-86
2021/05/26 03:37:35;;;;;;;7.22;4.35;;;10.10;91.80;;;;;;4960215;29;20023;-86
2021/05/26 03:40:00;;;;;;;11.60;8.05;;;10.10;91.60;;;;;;4961776;29;20483;-88
2021/05/26 03:42:26;;;;;;;15.20;8.35;;;10.10;91.80;;;;;;4963612;29;20027;-87
2021/05/26 03:44:52;;;;;;;18.35;9.23;;;10.10;91.50;;;;;;4966190;28;20093;-88
2021/05/26 03:47:18;;;;;;;17.45;12.15;;;10.00;91.40;;;;;;4978681;28;20027;-83
2021/05/26 03:49:44;;;;;;;26.63;16.23;;;10.10;91.60;;;;;;4962384;29;20027;-85
2021/05/26 03:52:10;;;;;;;25.45;13.90;;;10.10;91.90;;;;;;4959672;29;20039;-84
2021/05/26 03:54:36;;;;;;;23.42;13.60;;;10.10;91.90;;;;;;4959754;29;20019;-85
2021/05/26 03:57:04;;;;;;;26.38;15.85;;;10.10;91.90;;;;;;4960247;29;20039;-83
2021/05/26 03:59:29;;;;;;;30.92;17.50;;;10.10;91.90;;;;;;4958133;29;20033;-83
2021/05/26 04:01:55;;;;;;;22.05;13.43;;;10.10;92.10;;;;;;4956315;29;20015;-84
2021/05/26 04:04:21;;;;;;;25.08;15.23;;;10.10;92.10;;;;;;4955943;29;20387;-84
2021/05/26 04:06:46;;;;;;;25.95;16.35;;;10.10;92.30;;;;;;4956306;28;20070;-86
2021/05/26 04:09:12;;;;;;;28.98;15.88;;;10.20;92.10;;;;;;4961298;28;20537;-84
2021/05/26 04:11:37;;;;;;;23.52;14.68;;;10.20;92.40;;;;;;4960995;28;20030;-84
2021/05/26 04:14:04;;;;;;;27.42;14.27;;;10.20;92.20;;;;;;4978601;28;20463;-89
2021/05/26 04:16:29;;;;;;;26.10;13.07;;;10.30;92.20;;;;;;4968040;28;20045;-87
2021/05/26 04:18:55;;;;;;;30.13;14.38;;;10.30;92.20;;;;;;4969326;28;20054;-88
2021/05/26 04:21:21;;;;;;;25.52;15.55;;;10.20;92.10;;;;;;4964984;28;20187;-88
2021/05/26 04:23:46;;;;;;;24.02;13.15;;;10.20;92.10;;;;;;4962361;28;20023;-85
2021/05/26 04:26:12;;;;;;;31.55;14.25;;;10.30;92.10;;;;;;4960836;28;20427;-85
2021/05/26 04:28:45;;;;;;;21.17;11.13;;;10.20;92.00;;;;;;4961050;28;20007;-85
2021/05/26 04:31:13;;;;;;;27.52;15.73;;;10.30;91.70;;;;;;4960404;28;20026;-85
2021/05/26 04:33:40;;;;;;;34.05;16.20;;;10.30;91.70;;;;;;4977635;28;20049;-84
2021/05/26 04:36:06;;;;;;;27.13;14.10;;;10.30;91.70;;;;;;4959359;28;20023;-86
2021/05/26 04:38:32;;;;;;;27.60;14.60;;;10.30;91.70;;;;;;4960640;28;20117;-85
2021/05/26 04:40:59;;;;;;;23.08;12.80;;;10.30;91.90;;;;;;4960348;28;20160;-84
2021/05/26 04:43:28;;;;;;;22.25;13.35;;;10.30;91.80;;;;;;4977411;28;20527;-84
2021/05/26 04:45:54;;;;;;;23.75;12.95;;;10.40;91.80;;;;;;4959845;28;20027;-84
2021/05/26 04:48:20;;;;;;;23.77;12.52;;;10.40;91.70;;;;;;4960058;28;20434;-85
2021/05/26 04:50:46;;;;;;;30.95;13.38;;;10.40;91.70;;;;;;4959789;28;20058;-84
2021/05/26 04:53:11;;;;;;;34.20;12.40;;;10.40;91.70;;;;;;4977386;28;20037;-84
2021/05/26 04:55:37;;;;;;;18.60;9.38;;;10.40;91.70;;;;;;4962320;28;20535;-84
2021/05/26 04:58:05;;;;;;;21.42;10.93;;;10.40;91.40;;;;;;4977782;28;20011;-83
2021/05/26 05:00:31;;;;;;;19.15;9.13;;;10.40;91.50;;;;;;4965705;28;20033;-85
2021/05/26 05:02:57;;;;;;;20.02;8.73;;;10.40;91.40;;;;;;4960966;28;20015;-84
2021/05/26 05:05:23;;;;;;;19.20;9.38;;;10.40;91.20;;;;;;4962042;28;20467;-83
2021/05/26 05:07:49;;;;;;;16.05;8.38;;;10.40;91.10;;;;;;4961649;28;20047;-82
2021/05/26 05:10:15;;;;;;;16.95;8.57;;;10.40;91.30;;;;;;4963901;28;20058;-84
2021/05/26 05:12:41;;;;;;;16.95;7.90;;;10.30;91.30;;;;;;4959844;28;20033;-85
2021/05/26 05:15:07;;;;;;;18.60;7.90;;;10.30;91.30;;;;;;4959917;28;20031;-86
2021/05/26 05:17:33;;;;;;;21.88;8.63;;;10.30;91.30;;;;;;4961103;28;20360;-85
2021/05/26 05:19:58;;;;;;;24.10;8.60;;;10.30;91.60;;;;;;4964385;28;20031;-85
2021/05/26 05:22:24;;;;;;;22.30;8.15;;;10.30;91.30;;;;;;4965090;28;20044;-86
2021/05/26 05:24:50;;;;;;;16.30;8.05;;;10.30;91.30;;;;;;4965106;28;20034;-88
2021/05/26 05:27:15;;;;;;;20.42;8.70;;;10.30;91.50;;;;;;4966610;28;20045;-85
2021/05/26 05:29:41;;;;;;;17.08;8.30;;;10.30;91.50;;;;;;4972428;28;20019;-85
2021/05/26 05:32:07;;;;;;;16.30;8.75;;;10.40;91.80;;;;;;4964798;28;20175;-86
2021/05/26 05:34:33;;;;;;;17.17;8.38;;;10.40;91.50;;;;;;4963904;28;20038;-86
2021/05/26 05:36:58;;;;;;;17.02;8.35;;;10.50;91.20;;;;;;4964671;28;20391;-86
2021/05/26 05:39:24;;;;;;;16.33;7.75;;;10.60;91.00;;;;;;4965193;28;20023;-86
2021/05/26 05:41:50;;;;;;;17.50;8.15;;;10.60;90.90;;;;;;4966244;28;20058;-86
2021/05/26 05:44:15;;;;;;;17.15;8.52;;;10.70;90.90;;;;;;4966075;28;20498;-87
2021/05/26 05:46:41;;;;;;;14.27;7.15;;;10.70;90.90;;;;;;4965678;28;20106;-85
2021/05/26 05:49:07;;;;;;;22.17;8.60;;;10.60;90.90;;;;;;4965767;28;20458;-87
2021/05/26 05:51:33;;;;;;;13.07;7.05;;;10.70;90.80;;;;;;4971768;28;20015;-85
2021/05/26 05:53:59;;;;;;;16.52;7.03;;;10.70;90.60;;;;;;4982778;28;20082;-83
2021/05/26 05:56:25;;;;;;;15.68;7.50;;;10.70;90.50;;;;;;4982730;28;20065;-83
2021/05/26 05:58:50;;;;;;;14.45;5.97;;;10.70;90.50;;;;;;4962126;28;20027;-83
2021/05/26 06:01:16;;;;;;;23.48;9.35;;;10.70;90.60;;;;;;4980125;28;20030;-84
2021/05/26 06:03:41;;;;;;;13.75;6.80;;;10.60;90.80;;;;;;4964459;28;20121;-84
2021/05/26 06:06:08;;;;;;;15.75;7.93;;;10.70;90.60;;;;;;4972442;28;20037;-82
2021/05/26 06:08:35;;;;;;;17.98;7.85;;;10.70;90.60;;;;;;4961671;28;20062;-84
2021/05/26 06:11:01;;;;;;;13.82;8.13;;;10.70;90.40;;;;;;4966473;28;20058;-83
2021/05/26 06:13:28;;;;;;;15.88;7.85;;;10.70;90.40;;;;;;4965938;28;20046;-82
2021/05/26 06:15:53;;;;;;;14.13;7.32;;;10.60;90.50;;;;;;4967422;28;20039;-83
2021/05/26 06:18:19;;;;;;;14.27;6.70;;;10.60;90.30;;;;;;4984176;28;20151;-83
2021/05/26 06:20:45;;;;;;;17.42;8.15;;;10.60;90.30;;;;;;4967347;28;20113;-82
2021/05/26 06:23:11;;;;;;;16.40;7.85;;;10.60;90.40;;;;;;4965627;28;20594;-83
2021/05/26 06:25:38;;;;;;;18.05;7.68;;;10.60;90.20;;;;;;4968967;28;20053;-83
2021/05/26 06:28:04;;;;;;;11.32;6.05;;;10.70;90.50;;;;;;4968343;28;20110;-84
2021/05/26 06:30:30;;;;;;;15.05;9.30;;;10.60;90.10;;;;;;4969686;28;20026;-84
2021/05/26 06:32:55;;;;;;;21.75;10.23;;;10.60;90.50;;;;;;4969501;28;20115;-83
2021/05/26 06:35:21;;;;;;;19.95;9.65;;;10.60;90.70;;;;;;4973424;28;20061;-84
2021/05/26 06:37:47;;;;;;;25.20;10.98;;;10.60;90.80;;;;;;4970192;28;20007;-83
2021/05/26 06:40:13;;;;;;;20.02;10.00;;;10.70;90.80;;;;;;4971621;28;20061;-86
2021/05/26 06:42:38;;;;;;;23.55;9.07;;;10.70;90.60;;;;;;4997475;28;20105;-84
2021/05/26 06:45:05;;;;;;;16.38;8.35;;;10.70;90.40;;;;;;4973222;28;20482;-82
2021/05/26 06:47:31;;;;;;;16.92;8.82;;;10.80;90.60;;;;;;4972055;28;20042;-86
2021/05/26 06:49:57;;;;;;;12.40;8.07;;;10.70;90.30;;;;;;4975948;28;20015;-86
2021/05/26 06:52:23;;;;;;;18.30;11.40;;;10.70;90.40;;;;;;4985183;28;20021;-85
2021/05/26 06:54:48;;;;;;;19.73;10.35;;;10.80;90.40;;;;;;4994016;28;20079;-85
2021/05/26 06:57:14;;;;;;;21.30;9.93;;;10.80;90.40;;;;;;4983824;28;20022;-86
2021/05/26 06:59:42;;;;;;;18.98;10.55;;;11.00;90.20;;;;;;4981132;28;20030;-81
2021/05/26 07:02:21;;;;;;;20.70;9.75;;;11.00;89.60;;;;;;4980133;28;20027;-82
2021/05/26 07:04:47;;;;;;;20.52;10.80;;;11.20;89.50;;;;;;4964365;28;20026;-81
2021/05/26 07:07:18;;;;;;;23.00;11.85;;;11.30;89.50;;;;;;4964410;28;20039;-83
2021/05/26 07:09:43;;;;;;;15.15;10.02;;;11.40;88.90;;;;;;4968020;28;20053;-84
2021/05/26 07:12:09;;;;;;;15.35;9.55;;;11.50;86.90;;;;;;4963945;28;20470;-82
2021/05/26 07:14:35;;;;;;;18.65;9.93;;;11.50;87.50;;;;;;4964438;28;20030;-83
2021/05/26 07:17:01;;;;;;;16.65;10.88;;;11.70;87.50;;;;;;4963662;28;20026;-84
2021/05/26 07:19:26;;;;;;;19.83;11.30;;;11.70;86.90;;;;;;4963269;28;20041;-81
2021/05/26 07:21:52;;;;;;;18.50;10.80;;;11.70;86.60;;;;;;4958693;28;20139;-78
2021/05/26 07:24:17;;;;;;;18.85;10.45;;;11.70;86.50;;;;;;4959050;28;20029;-77
2021/05/26 07:26:43;;;;;;;21.75;10.63;;;11.80;86.60;;;;;;4959941;28;20033;-81
2021/05/26 07:29:09;;;;;;;21.00;11.07;;;11.80;86.50;;;;;;4960567;28;20023;-81
2021/05/26 07:31:34;;;;;;;17.67;11.07;;;11.90;85.80;;;;;;4961025;28;20073;-79
2021/05/26 07:34:00;;;;;;;18.73;9.90;;;11.90;86.00;;;;;;4977441;28;20366;-80
2021/05/26 07:36:26;;;;;;;27.25;11.60;;;12.00;85.90;;;;;;4960839;28;20038;-79
2021/05/26 07:38:52;;;;;;;13.93;8.88;;;12.10;86.10;;;;;;4961206;28;20019;-82
2021/05/26 07:41:18;;;;;;;14.68;9.55;;;12.30;85.00;;;;;;4959263;28;20031;-79
2021/05/26 07:43:43;;;;;;;16.95;9.85;;;12.20;84.70;;;;;;4976661;28;20094;-80
2021/05/26 07:46:09;;;;;;;16.70;10.70;;;12.20;84.10;;;;;;4959927;28;20066;-80
2021/05/26 07:48:36;;;;;;;15.05;9.00;;;12.30;84.70;;;;;;4960600;28;20158;-82
2021/05/26 07:51:03;;;;;;;16.45;9.98;;;12.30;83.90;;;;;;4977670;28;20034;-81
2021/05/26 07:53:29;;;;;;;17.52;9.13;;;12.40;84.10;;;;;;4961255;28;20062;-80
2021/05/26 07:55:54;;;;;;;18.42;10.02;;;12.60;83.00;;;;;;4964910;28;20054;-79
2021/05/26 07:58:24;;;;;;;14.40;8.57;;;12.70;82.50;;;;;;4988876;28;20023;-79
2021/05/26 08:00:50;;;;;;;17.52;9.85;;;12.70;83.00;;;;;;4962336;28;20081;-81
2021/05/26 08:03:15;;;;;;;17.48;10.32;;;12.70;82.10;;;;;;4958345;28;20113;-81
2021/05/26 08:05:41;;;;;;;19.20;9.98;;;12.80;81.60;;;;;;4958395;28;20073;-79
2021/05/26 08:08:06;;;;;;;17.30;10.80;;;12.70;82.80;;;;;;4976336;28;20105;-81
2021/05/26 08:10:32;;;;;;;17.90;11.15;;;12.70;82.20;;;;;;4960324;28;20034;-79
2021/05/26 08:12:57;;;;;;;18.35;10.48;;;12.70;82.30;;;;;;4963307;28;20073;-81
2021/05/26 08:15:23;;;;;;;21.10;11.35;;;12.80;81.40;;;;;;4963201;28;20027;-81
2021/05/26 08:17:58;;;;;;;15.50;9.45;;;12.80;81.20;;;;;;4996801;28;20023;-83
2021/05/26 08:20:27;;;;;;;17.27;10.30;;;12.80;80.90;;;;;;4961295;28;20497;-80
2021/05/26 08:22:57;;;;;;;19.35;11.30;;;12.90;80.70;;;;;;4960588;28;20053;-79
2021/05/26 08:25:23;;;;;;;;;;;13.00;80.60;;;;;;4975527;28;20049;-81
2021/05/26 08:27:48;;;;;;;18.15;11.40;;;13.00;80.20;;;;;;4978747;28;19931;-81
2021/05/26 08:30:14;;;;;;;13.50;9.43;;;13.00;80.60;;;;;;4978870;28;20025;-80
2021/05/26 08:32:40;;;;;;;17.83;10.73;;;13.00;80.30;;;;;;4996125;28;20494;-80
2021/05/26 08:35:06;;;;;;;13.15;9.23;;;13.00;80.40;;;;;;4978212;28;20030;-80
2021/05/26 08:37:32;;;;;;;21.30;12.35;;;13.10;80.60;;;;;;4977019;28;20045;-78
2021/05/26 08:39:58;;;;;;;14.52;9.73;;;13.10;79.40;;;;;;4977858;28;20023;-79
2021/05/26 08:42:24;;;;;;;17.52;10.45;;;13.10;78.90;;;;;;4986161;28;20070;-78
2021/05/26 08:44:49;;;;;;;14.23;9.13;;;13.10;79.40;;;;;;4996341;28;20038;-75
2021/05/26 08:47:19;;;;;;;13.73;9.30;;;13.20;79.50;;;;;;4999702;28;20458;-77
2021/05/26 08:49:46;;;;;;;17.17;10.77;;;13.20;79.20;;;;;;4976577;28;20026;-78
2021/05/26 08:52:15;;;;;;;16.17;10.75;;;13.30;79.40;;;;;;4976663;28;20504;-82
2021/05/26 08:54:42;;;;;;;16.63;10.60;;;13.30;79.10;;;;;;4980959;28;20491;-81
2021/05/26 08:57:08;;;;;;;15.77;9.35;;;13.30;79.10;;;;;;4981138;28;20018;-81
2021/05/26 08:59:34;;;;;;;17.40;10.30;;;13.50;79.10;;;;;;4981561;28;20356;-82
2021/05/26 09:01:59;;;;;;;16.10;11.05;;;13.80;79.00;;;;;;4982228;28;20117;-81
2021/05/26 09:04:31;;;;;;;16.55;10.48;;;14.20;77.50;;;;;;4984725;28;20533;-80
2021/05/26 09:07:12;;;;;;;12.80;6.38;;;14.50;75.60;;;;;;4986518;28;20022;-81
2021/05/26 09:09:49;;;;;;;15.52;10.45;;;14.70;73.80;;;;;;4983619;28;20042;-81
2021/05/26 09:12:23;;;;;;;14.88;9.88;;;14.90;72.70;;;;;;4982335;28;20034;-82
2021/05/26 09:14:49;;;;;;;20.27;10.07;;;15.30;72.10;;;;;;4999072;28;20057;-82
2021/05/26 09:17:14;;;;;;;13.98;8.45;;;15.50;70.10;;;;;;4980472;28;20022;-82
2021/05/26 09:19:40;;;;;;;15.02;9.10;;;15.70;68.50;;;;;;4980850;28;20030;-82
2021/05/26 09:22:18;;;;;;;10.60;6.80;;;15.80;67.90;;;;;;4982162;28;20018;-82
2021/05/26 09:24:43;;;;;;;14.52;8.18;;;16.00;68.60;;;;;;4980670;28;20049;-81
2021/05/26 09:27:12;;;;;;;13.00;7.82;;;16.00;67.90;;;;;;4991835;28;20077;-80
2021/05/26 09:29:44;;;;;;;13.77;8.80;;;16.10;67.40;;;;;;4978793;28;20026;-79
2021/05/26 09:32:12;;;;;;;9.15;6.82;;;15.90;65.00;;;;;;4997659;28;20026;-81
2021/05/26 09:34:39;;;;;;;10.57;6.53;;;15.90;67.70;;;;;;4981391;28;20018;-79
2021/05/26 09:37:05;;;;;;;13.10;8.50;;;16.00;67.40;;;;;;4980232;28;20030;-81
2021/05/26 09:40:00;;;;;;;14.77;8.57;;;15.90;66.60;;;;;;4980718;28;20121;-78
2021/05/26 09:42:37;;;;;;;9.82;7.85;;;15.50;67.00;;;;;;4980773;28;20089;-79
2021/05/26 09:45:04;;;;;;;14.40;8.52;;;15.40;68.30;;;;;;4979441;28;20104;-78
2021/05/26 09:47:34;;;;;;;14.63;8.65;;;15.60;67.20;;;;;;4979289;28;20031;-79
2021/05/26 09:50:13;;;;;;;17.17;7.75;;;16.00;65.40;;;;;;4979833;28;20031;-79
2021/05/26 09:52:59;;;;;;;13.05;7.70;;;16.00;63.80;;;;;;4979685;28;20526;-79
2021/05/26 09:55:32;;;;;;;13.48;8.27;;;15.90;63.90;;;;;;4980280;28;20026;-78
2021/05/26 09:57:58;;;;;;;13.65;7.80;;;15.90;65.00;;;;;;4981762;28;20030;-77
2021/05/26 10:00:25;;;;;;;14.75;6.30;;;16.00;63.50;;;;;;4989390;28;20042;-79
2021/05/26 10:02:51;;;;;;;10.73;6.60;;;15.90;63.90;;;;;;4992380;28;20049;-78
2021/05/26 10:05:19;;;;;;;10.70;6.85;;;15.80;64.30;;;;;;4978183;28;20471;-79
2021/05/26 10:07:50;;;;;;;9.48;5.13;;;15.70;63.70;;;;;;4978896;28;20134;-76
2021/05/26 10:10:18;;;;;;;13.27;6.90;;;15.60;65.30;;;;;;4980023;28;20033;-78
2021/05/26 10:12:43;;;;;;;9.80;6.25;;;15.90;66.40;;;;;;4980593;28;20073;-79
2021/05/26 10:15:12;;;;;;;9.93;7.03;;;16.00;65.70;;;;;;4983549;28;20102;-79
2021/05/26 10:17:49;;;;;;;13.82;8.70;;;16.10;65.40;;;;;;4982645;28;20062;-80
2021/05/26 10:20:43;;;;;;;11.15;6.90;;;16.20;66.00;;;;;;4984473;28;20048;-80
2021/05/26 10:23:14;;;;;;;4.00;1.70;;;16.30;64.70;;;;;;4980886;28;20518;-80
2021/05/26 10:25:44;;;;;;;3.13;1.63;;;16.00;58.50;;;;;;4979257;28;20033;-79
2021/05/26 10:28:26;;;;;;;4.55;1.60;;;15.60;61.20;;;;;;4978708;28;20022;-80
2021/05/26 10:30:53;;;;;;;5.97;1.83;;;15.20;64.90;;;;;;4996178;28;20113;-78
2021/05/26 10:33:19;;;;;;;3.85;1.23;;;14.70;65.50;;;;;;4979514;28;20397;-79
2021/05/26 10:36:11;;;;;;;4.88;1.60;;;14.20;67.00;;;;;;4981014;28;20022;-79
2021/05/26 10:39:00;;;;;;;4.82;2.33;;;13.80;70.50;;;;;;4992389;28;20038;-80
2021/05/26 10:41:44;;;;;;;3.67;1.50;;;13.40;73.30;;;;;;4979569;28;20022;-81
2021/05/26 10:44:10;;;;;;;4.55;1.60;;;13.00;75.80;;;;;;4996845;28;20034;-80
2021/05/26 10:46:37;;;;;;;4.55;1.80;;;12.70;76.70;;;;;;4981103;28;20523;-79
2021/05/26 10:49:13;;;;;;;4.60;1.73;;;12.40;77.50;;;;;;4978936;28;20060;-83
2021/05/26 10:51:51;;;;;;;4.97;1.52;;;12.20;78.90;;;;;;4979617;28;20019;-83
2021/05/26 10:54:38;;;;;;;2.90;1.20;;;12.10;79.20;;;;;;4982613;28;20038;-80
2021/05/26 10:57:08;;;;;;;6.28;1.60;;;12.00;80.10;;;;;;4980109;28;20233;-81
2021/05/26 10:59:34;;;;;;;4.82;1.90;;;12.00;79.10;;;;;;4979017;28;20022;-83
2021/05/26 11:02:12;;;;;;;6.93;2.13;;;11.90;80.60;;;;;;4978897;28;20053;-83
2021/05/26 11:04:39;;;;;;;8.95;2.92;;;11.80;80.30;;;;;;4979220;28;20057;-82
2021/05/26 11:07:20;;;;;;;5.40;2.30;;;11.60;81.90;;;;;;4980322;28;20050;-81
2021/05/26 11:10:05;;;;;;;;;;;11.60;82.60;;;;;;4982502;28;20030;-83
2021/05/26 11:12:56;;;;;;;5.93;2.20;;;11.50;82.80;;;;;;4987270;28;19914;-83
2021/05/26 11:15:41;;;;;;;4.78;2.30;;;11.60;83.40;;;;;;4979148;28;20493;-82
2021/05/26 11:18:18;;;;;;;3.90;2.03;;;11.80;83.80;;;;;;4980181;28;20022;-82
2021/05/26 11:20:43;;;;;;;6.10;2.00;;;12.00;84.40;;;;;;4980418;28;20406;-82
2021/05/26 11:23:11;;;;;;;3.65;1.73;;;12.30;85.00;;;;;;4979997;28;20019;-81
2021/05/26 11:25:37;;;;;;;4.82;2.00;;;12.70;83.30;;;;;;4980077;28;20066;-81
2021/05/26 11:28:03;;;;;;;3.80;1.88;;;13.00;83.10;;;;;;4978589;28;20188;-80
2021/05/26 11:30:28;;;;;;;3.88;1.90;;;13.40;79.80;;;;;;4974528;28;20487;-81
2021/05/26 11:32:54;;;;;;;4.10;1.48;;;13.60;80.10;;;;;;4974465;28;20022;-81
2021/05/26 11:35:20;;;;;;;2.80;1.55;;;13.90;79.90;;;;;;4977039;28;20022;-82
2021/05/26 11:37:46;;;;;;;7.70;1.85;;;14.10;79.40;;;;;;4977726;28;20117;-81
2021/05/26 11:40:19;;;;;;;3.92;1.50;;;14.00;78.80;;;;;;4993801;28;20022;-78
2021/05/26 11:42:45;;;;;;;4.47;1.73;;;14.10;78.80;;;;;;4977210;28;20383;-79
2021/05/26 11:45:11;;;;;;;4.18;2.17;;;14.10;78.60;;;;;;4977905;28;20019;-79
2021/05/26 11:47:42;;;;;;;6.55;2.25;;;14.10;78.50;;;;;;4979421;28;20084;-80
2021/05/26 11:50:14;;;;;;;5.38;2.20;;;14.10;78.20;;;;;;4980204;28;20026;-80
2021/05/26 11:52:41;;;;;;;6.13;2.08;;;14.10;78.90;;;;;;4977785;28;20049;-79
2021/05/26 11:55:07;;;;;;;4.68;1.88;;;14.00;78.60;;;;;;4977172;28;20045;-78
2021/05/26 11:57:37;;;;;;;7.22;2.35;;;13.90;79.30;;;;;;4994510;28;20034;-79
2021/05/26 12:00:10;;;;;;;6.32;2.70;;;13.80;79.50;;;;;;4977609;28;20029;-79
2021/05/26 12:02:58;;;;;;;9.85;2.60;;;13.70;80.30;;;;;;4982124;28;20076;-79
2021/05/26 12:05:44;;;;;;;5.80;2.35;;;13.70;80.20;;;;;;4993336;28;20481;-80
2021/05/26 12:08:31;;;;;;;5.38;2.85;;;13.60;80.10;;;;;;4983545;28;20054;-79
2021/05/26 12:10:59;;;;;;;7.40;2.45;;;13.60;81.30;;;;;;4981271;28;20467;-79
2021/05/26 12:13:35;;;;;;;7.10;3.50;;;13.60;81.50;;;;;;4981178;28;20026;-80
2021/05/26 12:16:05;;;;;;;6.30;3.17;;;13.70;81.40;;;;;;4981514;28;20022;-80
2021/05/26 12:18:31;;;;;;;8.65;4.03;;;13.70;81.40;;;;;;4983099;28;20030;-80
2021/05/26 12:20:58;;;;;;;10.52;3.53;;;14.20;81.90;;;;;;4982217;28;20126;-79
2021/05/26 12:23:35;;;;;;;5.55;2.13;;;14.80;79.40;;;;;;4980243;28;20041;-80
2021/05/26 12:26:03;;;;;;;6.90;2.03;;;15.30;73.00;;;;;;4978317;28;20153;-80
2021/05/26 12:28:30;;;;;;;6.40;2.35;;;15.70;72.20;;;;;;4980624;28;20022;-79
2021/05/26 12:30:56;;;;;;;5.47;2.38;;;15.80;70.30;;;;;;4991637;28;20113;-80
2021/05/26 12:33:24;;;;;;;5.88;3.00;;;15.90;71.80;;;;;;4996737;28;20110;-79
2021/05/26 12:36:04;;;;;;;5.97;2.30;;;16.00;71.70;;;;;;4976024;28;20035;-83
2021/05/26 12:38:33;;;;;;;;;;;16.50;72.10;;;;;;4976352;28;20034;-80
2021/05/26 12:41:17;;;;;;;4.57;1.95;;;16.80;71.00;;;;;;4976197;28;20362;-80
2021/05/26 12:43:42;;;;;;;7.05;1.80;;;16.90;67.90;;;;;;4982694;28;20029;-80
2021/05/26 12:46:08;;;;;;;5.45;1.75;;;16.60;64.20;;;;;;4975994;28;20030;-81